Record high temperature 44.9°C Record low temperature -0.3°C Record high gust 87.3 km/h Record high average 77.7 km/h Record daily rain 383.8 mm Record low windchill -5.8°C Record high barometer 1043.6 hPa Record low barometer 978.0 hPa
Daily high pressure 1021.2 mb Daily low pressure 1018.4 mb Daily low windchill 12.2°C Daily high heat index 14.4°C Daily high gust speed 22.6 kmh NE Daily high average speed 12.2 kmh NE
Estación de MeteoMurcia.com -------- Murcia-Puente Tocinos
Ultima grabación a: 18:50 Data: 18 February 2018, time of next update: 19:00
Tiempo actualmostly cloudy Temperatura actual12.9°C (55.2°F), Temperatura aparente 11.1°C
Temperatura máxima (desde medianoche)14.4°C at: 00:32 Temperatura mínima (desde medianoche)12.2°C at: 06:00
Velocidad media del viento (diez minutos)12.0 kmh (6.5 kts) Dirección del viento (diez minutos)NE (47°)
Temperatura aparente 12.9°C ráfagas maxima (última hora)22.6 kmh (12.2 kts) at: 18:36
ráfagas maxima (desde medianoche)22.6 kmh (12.2 kts) at: 18:36 Maximo media de un minuto (desde medianoche)12.2 kmh (6.6 kts) at: 18:04
Lluvia (última hora)0.0 mm Lluvia (desde medianoche)0.0 mm (0.00 in.)---
Lluvia Este mes 17.9 mm (0.70 in.) Lluvia Hasta la fecha este año74.9 mm (2.95 in.)
Lluvia máxima por minuto (última hora)0.0 mm/min Lluvia maxima por hora (últimas 6 horas)0.0 mm/hora
Lluvia de ayer 0.0 mm Punto de rocío 10.6°C (Wet Bulb :11.7°C )
Humedad 86 %, Humidex 14.5°C Barómetro corregido a msl1018.7 mb
cambio de presión0.1 mb (última hora) Tendencia (últimas 1 hora)ESTACIONARIO
cambio de presión (últimas 12 horas)-1.1 mb cambio de presión (últimas 6 horas)-1.8 mb
Current Temp. Interna 22.1°C
Current Hum. Interna 54%


Última imagen cámara web


Weather report/warning/Metars

Alicante / El Altet, Spain (LEAL) 38-17N 000-33W 31M
Feb 18, 2018 - 12:30 PM EST / 2018.02.18 1730 UTC
Wind: from the ENE (070 degrees) at 12 MPH (10 KT):0
Visibility: greater than 7 mile(s):0
Sky conditions: mostly cloudy
Temperature: 55 F (13 C)
Dew Point: 50 F (10 C)
Relative Humidity: 81%
Pressure (altimeter): 30.12 in. Hg (1020 hPa)
ob: LEAL 181730Z 07010KT 9999 SCT012 BKN025 13/10 Q1020 NOSIG
cycle: 17
Murcia / San Javier, Spain (LELC) 37-47N 000-48W 3M
Feb 18, 2018 - 12:00 PM EST / 2018.02.18 1700 UTC
Wind: from the NE (050 degrees) at 10 MPH (9 KT) (direction variable):0
Visibility: greater than 7 mile(s):0
Sky conditions: mostly cloudy
Temperature: 57 F (14 C)
Dew Point: 53 F (12 C)
Relative Humidity: 87%
Pressure (altimeter): 30.12 in. Hg (1020 hPa)
ob: LELC 181700Z 05009KT 030V090 9999 FEW012 SCT020 BKN025 14/12 Q1020 NOSIG
cycle: 17
Murcia / Alcantarilla, Spain (LERI) 37-57N 001-14W 75M
Feb 18, 2018 - 12:00 PM EST / 2018.02.18 1700 UTC
Wind: from the ENE (070 degrees) at 8 MPH (7 KT) (direction variable):0
Visibility: greater than 7 mile(s):0
Sky conditions: mostly clear
Temperature: 57 F (14 C)
Dew Point: 50 F (10 C)
Relative Humidity: 76%
Pressure (altimeter): 30.12 in. Hg (1020 hPa)
ob: LERI 181700Z 07007KT 030V110 9999 FEW020 14/10 Q1020 NOSIG
cycle: 17
Gerona / Costa Brava, Spain (LEGE) 41-54N 002-46E 129M
Feb 18, 2018 - 12:30 PM EST / 2018.02.18 1730 UTC
Wind: Variable at 2 MPH (2 KT):0
Visibility: greater than 7 mile(s):0
Sky conditions: mostly clear
Temperature: 51 F (11 C)
Dew Point: 46 F (8 C)
Relative Humidity: 81%
Pressure (altimeter): 30.09 in. Hg (1019 hPa)
ob: LEGE 181730Z VRB02KT 9999 FEW045 11/08 Q1019
cycle: 17
Madri-Colmenar, Spain (LECV) 40-39N 003-44W
Feb 18, 2018 - 12:00 PM EST / 2018.02.18 1700 UTC
Wind: from the NNE (030 degrees) at 8 MPH (7 KT):0
Visibility: greater than 7 mile(s):0
Sky conditions: mostly clear
Temperature: 51 F (11 C)
Dew Point: 33 F (1 C)
Relative Humidity: 50%
Pressure (altimeter): 30.12 in. Hg (1020 hPa)
ob: LECV 181700Z 03007KT 9999 FEW050 11/01 Q1020
cycle: 17
Asturias / Aviles, Spain (LEAS) 43-33N 006-02W 130M
Feb 18, 2018 - 12:30 PM EST / 2018.02.18 1730 UTC
Wind: from the WNW (300 degrees) at 7 MPH (6 KT):0
Visibility: greater than 7 mile(s):0
Sky conditions: mostly cloudy
Temperature: 51 F (11 C)
Dew Point: 48 F (9 C)
Relative Humidity: 87%
Pressure (altimeter): 30.30 in. Hg (1026 hPa)
ob: LEAS 181730Z 30006KT 9999 BKN025 BKN060 11/09 Q1026 TEMPO 3000 RA BKN010
cycle: 17
Almeria / Aeropuerto, Spain (LEAM) 36-51N 002-23W 21M
Feb 18, 2018 - 12:30 PM EST / 2018.02.18 1730 UTC
Wind: from the ENE (070 degrees) at 15 MPH (13 KT):0
Visibility: greater than 7 mile(s):0
Sky conditions: partly cloudy
Temperature: 59 F (15 C)
Dew Point: 48 F (9 C)
Relative Humidity: 67%
Pressure (altimeter): 30.09 in. Hg (1019 hPa)
ob: LEAM 181730Z 07013KT 9999 FEW030 SCT042 15/09 Q1019
cycle: 17
Pamplona / Noain, Spain (LEPP) 42-46N 001-38W 453M
Feb 18, 2018 - 12:30 PM EST / 2018.02.18 1730 UTC
Wind: from the NW (310 degrees) at 8 MPH (7 KT):0
Visibility: greater than 7 mile(s):0
Sky conditions: mostly cloudy
Temperature: 46 F (8 C)
Dew Point: 42 F (6 C)
Relative Humidity: 87%
Pressure (altimeter): 30.18 in. Hg (1022 hPa)
ob: LEPP 181730Z 31007KT 9999 FEW016 SCT022 BKN032 08/06 Q1022
cycle: 17
Badajoz / Talavera La Real, Spain (LEBZ) 38-53N 006-49W 192M
Feb 18, 2018 - 12:00 PM EST / 2018.02.18 1700 UTC
Wind: from the N (360 degrees) at 13 MPH (11 KT):0
Visibility: greater than 7 mile(s):0
Temperature: 62 F (17 C)
Dew Point: 32 F (0 C)
Relative Humidity: 31%
Pressure (altimeter): 30.12 in. Hg (1020 hPa)
ob: LEBZ 181700Z 36011KT CAVOK 17/00 Q1020
cycle: 17
Albacete / Los Llanos, Spain (LEAB) 38-57N 001-51W 704M
Feb 18, 2018 - 12:00 PM EST / 2018.02.18 1700 UTC
Wind: from the NW (320 degrees) at 5 MPH (4 KT):0
Visibility: greater than 7 mile(s):0
Sky conditions: mostly clear
Temperature: 53 F (12 C)
Dew Point: 37 F (3 C)
Relative Humidity: 54%
Pressure (altimeter): 30.09 in. Hg (1019 hPa)
ob: LEAB 181700Z 32004KT 9999 FEW040 12/03 Q1019 NOSIG
cycle: 17



La informacion se graba a intervalos de 2 minutos, pero hay info grabada cada minuto. Optimizado para 800*600 y Color verdadero. Use el boton de

Use the RECARGA en su navegador para recojer la ulima info.

Clicar aquí para regarga diaria de medias/extremas del mes














Created by "Weather Display" software version 10.37S at this start time/date 14:38:01 11/02/2018

La estación de MeteoMurcia.com, publica sus datos en los siguientes proyectos:

Meteoclimatic www.awekas.at

W3Counter
Web Analytics